Nagarote, Nicaragua

6:28 AM CST on October 25, 2014 (GMT -0600)
Augusto Cesar Sandino | Change Station
CLOSE
Current Station
Airport
Location: Managua,
Elevation: 184 ft
Nearby Weather Stations

Elev 184 ft 12.14 °N, 86.17 °W | Updated 28 minutes ago

Scattered Clouds
Scattered Clouds
79 °F
Feels Like 79 °F
N
7
Wind Variable Wind from West

Today
High -- | Low -- °F
--% Chance of Precip.
Yesterday
High -- | Low -- °F
Precip. -- in
5:37 AM 5:22 PM
Waxing Crescent, 3% visible
Pressure 29.83 in
Visibility 6.2 miles
Clouds Few 2000 ft
Scattered Clouds 30000 ft
Dew Point 75 °F
Humidity 89%
Rainfall 0.00 in
Snow Depth Not available.
UV 0 out of 12
Pollen Not available.
Air Quality Not available.
Flu Activity Not available.
METAR MNMG 251200Z 27006KT 9999 FEW020TCU SCT300 26/24 Q1010 A2985 TCU/N/NE/E/SW 1AC070 NOSIG

More Conditions Fewer Conditions

Pressure 29.83 in
Visibility 6.2 miles
Clouds Few 2000 ft
Scattered Clouds 30000 ft
Dew Point 75 °F
Humidity 89%
Rainfall 0.00 in
Snow Depth Not available.
UV 0 out of 12
Pollen Not available.
Air Quality Not available.
Flu Activity Not available.
METAR MNMG 251200Z 27006KT 9999 FEW020TCU SCT300 26/24 Q1010 A2985 TCU/N/NE/E/SW 1AC070 NOSIG

More Conditions Fewer Conditions

10-Day Weather Forecast

Almanac

Astronomy

Oct. 25, 2014 Rise Set
Actual Time 5:37 AM CST 5:22 PM CST
Civil Twilight 5:15 AM CST 5:44 PM CST
Nautical Twilight 4:50 AM CST 6:09 PM CST
Astronomical Twilight 4:25 AM CST 6:34 PM CST
Moon 7:04 AM CST 6:59 PM CST
Length of Visible Light 12h 28m
Length of Day
11h 45m
Tomorrow will be 0m 35s shorter.
Waxing Crescent, 3% of the Moon is Illuminated
Today
Waxing Crescent
Oct 30
First Quarter
Nov 6
Full
Nov 14
Last Quarter
Nov 22
New

Yesterday's Extremes

Country Highs Country Lows

Community

WunderPhotos

Upload Photos

1,764,816 photos uploaded!

Nearby

Snow Depth

Not available.

Earthquake Activity

City Distance Mag. Time & Date
No recent earthquake activity has been reported nearby.
Minimum magnitude displayed is 2.5.

Coastal Water Temperatures

Place Temperature
No Stations Reporting

Nearby Weather Stations